createdAt,value
2019-06-25T10:47:38.243Z,42.58
2019-06-25T10:50:11.048Z,43.09
2019-06-25T10:52:44.016Z,42.76
2019-06-25T10:55:16.986Z,42.71
2019-06-25T10:57:47.392Z,42.61
2019-06-25T11:00:23.231Z,42.26
2019-06-25T11:02:56.095Z,41.96
2019-06-25T11:05:28.013Z,41.93
2019-06-25T11:07:59.463Z,41.96
2019-06-25T11:10:32.009Z,40.61
2019-06-25T11:13:05.008Z,41.32
2019-06-25T11:15:38.190Z,40.68
2019-06-25T11:18:09.861Z,41.15
2019-06-25T11:20:41.005Z,40.92
2019-06-25T11:23:14.093Z,41.32
2019-06-25T11:26:03.859Z,40.52
2019-06-25T11:28:20.174Z,40.44
2019-06-25T11:30:53.069Z,39.30
2019-06-25T11:33:26.148Z,39.35
2019-06-25T11:35:59.249Z,37.36
2019-06-25T11:38:32.236Z,38.34
2019-06-25T11:41:05.086Z,38.96
2019-06-25T11:43:44.065Z,39.22
2019-06-25T11:46:10.191Z,39.02
2019-06-25T11:48:41.341Z,38.14
2019-06-25T11:51:14.324Z,37.75
2019-06-25T11:53:46.837Z,38.19
2019-06-25T11:56:17.556Z,38.09
2019-06-25T11:58:50.286Z,38.23
2019-06-25T12:01:23.400Z,37.68
2019-06-25T12:03:56.432Z,37.58
2019-06-25T12:06:35.090Z,37.67
2019-06-25T12:09:04.030Z,37.61
2019-06-25T12:11:36.635Z,37.17
2019-06-25T12:14:09.526Z,36.95
2019-06-25T12:16:41.414Z,36.20
2019-06-25T12:19:14.375Z,35.38
2019-06-25T12:21:46.945Z,34.64
2019-06-25T12:24:19.473Z,34.83
2019-06-25T12:26:50.514Z,35.33
2019-06-25T12:29:22.311Z,35.64
2019-06-25T12:31:53.490Z,34.92
2019-06-25T12:34:24.481Z,34.92
2019-06-25T12:37:08.990Z,34.16
2019-06-25T12:39:30.425Z,35.13
2019-06-25T12:42:02.659Z,35.84
2019-06-25T12:44:34.583Z,34.99
2019-06-25T12:47:07.482Z,34.99
2019-06-25T12:49:39.529Z,35.07
2019-06-25T12:52:11.483Z,34.38
2019-06-25T12:54:43.651Z,33.58
2019-06-25T12:57:14.626Z,32.43
2019-06-25T12:59:46.520Z,32.30
2019-06-25T13:02:17.648Z,32.04
2019-06-25T13:04:50.688Z,32.13
2019-06-25T13:07:25.782Z,31.57
2019-06-25T13:09:56.648Z,30.50
2019-06-25T13:12:28.698Z,29.84
2019-06-25T13:14:59.726Z,29.95
2019-06-25T13:17:32.769Z,29.17
2019-06-25T13:20:06.016Z,29.68
2019-06-25T13:22:38.668Z,29.50
2019-06-25T13:25:11.815Z,29.76
2019-06-25T13:27:44.675Z,29.12
2019-06-25T13:30:17.869Z,28.86
2019-06-25T13:32:50.782Z,28.95
2019-06-25T13:35:21.686Z,28.13
2019-06-25T13:37:53.783Z,27.58
2019-06-25T13:40:24.884Z,27.30
2019-06-25T13:42:57.101Z,27.79
2019-06-25T13:45:28.819Z,28.30
2019-06-25T13:48:11.386Z,27.91
2019-06-25T13:50:33.906Z,27.51
2019-06-25T13:53:05.966Z,27.29
2019-06-25T13:55:36.877Z,26.96
2019-06-25T13:58:07.961Z,27.04
2019-06-25T14:00:39.911Z,27.33
2019-06-25T14:03:11.963Z,27.19
2019-06-25T14:05:44.860Z,27.46
2019-06-25T14:08:17.943Z,27.83
2019-06-25T14:10:50.826Z,27.35
2019-06-25T14:13:24.092Z,26.51
2019-06-25T14:15:56.874Z,25.62
2019-06-25T14:18:30.034Z,25.52
2019-06-25T14:21:02.955Z,25.11
2019-06-25T14:23:36.071Z,24.51
2019-06-25T14:26:10.598Z,23.48
2019-06-25T14:28:43.070Z,22.55
2019-06-25T14:31:15.031Z,23.14
2019-06-25T14:33:47.063Z,23.59
2019-06-25T14:36:19.256Z,22.65
2019-06-25T14:38:51.329Z,21.06
2019-06-25T14:41:25.447Z,20.85
2019-06-25T14:43:57.099Z,20.54
2019-06-25T14:46:30.164Z,20.35
2019-06-25T14:49:01.559Z,20.12
2019-06-25T14:51:33.300Z,19.91
2019-06-25T14:54:05.293Z,19.59
2019-06-25T14:56:38.071Z,19.19
2019-06-25T14:59:08.436Z,18.78
2019-06-25T15:01:39.200Z,18.94
2019-06-25T15:04:11.507Z,18.07
2019-06-25T15:06:41.898Z,18.42
2019-06-25T15:09:12.275Z,18.03
2019-06-25T15:11:45.145Z,18.04
2019-06-25T15:14:18.325Z,17.92
2019-06-25T15:16:50.159Z,17.60
2019-06-25T15:19:23.140Z,17.52
2019-06-25T15:21:54.315Z,17.64
2019-06-25T15:24:25.674Z,17.81
2019-06-25T15:26:56.380Z,16.98
2019-06-25T15:29:28.383Z,17.32
2019-06-25T15:32:05.274Z,17.45
2019-06-25T15:34:37.427Z,17.51
2019-06-25T15:37:08.352Z,17.99
2019-06-25T15:39:40.342Z,17.50
2019-06-25T15:42:11.372Z,17.20
2019-06-25T15:44:41.783Z,16.74
2019-06-25T15:47:14.352Z,17.18
2019-06-25T15:49:46.370Z,17.27
2019-06-25T15:52:17.513Z,17.04
2019-06-25T15:54:47.947Z,16.87
2019-06-25T15:57:18.449Z,16.24
2019-06-25T15:59:50.501Z,16.36
2019-06-25T16:02:23.505Z,16.26
2019-06-25T16:04:56.460Z,16.42
2019-06-25T16:07:27.593Z,15.99
2019-06-25T16:09:59.514Z,16.38
2019-06-25T16:12:32.561Z,16.09
2019-06-25T16:15:05.472Z,16.57
2019-06-25T16:17:37.496Z,16.35
2019-06-25T16:20:11.390Z,16.58
2019-06-25T16:22:44.622Z,16.09
2019-06-25T16:25:15.896Z,16.42
2019-06-25T16:27:47.192Z,16.29
2019-06-25T16:30:19.013Z,16.70
2019-06-25T16:32:50.541Z,16.46
2019-06-25T16:35:27.062Z,16.43
2019-06-25T16:38:05.004Z,16.73
2019-06-25T16:40:35.736Z,16.74
2019-06-25T16:43:08.604Z,17.19
2019-06-25T16:45:41.724Z,16.86
2019-06-25T16:48:12.681Z,16.84
2019-06-25T16:50:44.651Z,17.10
2019-06-25T16:53:17.738Z,17.29
2019-06-25T16:55:48.234Z,17.38
2019-06-25T16:58:19.880Z,16.97
2019-06-25T17:00:50.847Z,17.17
2019-06-25T17:03:21.767Z,17.15
2019-06-25T17:05:53.733Z,18.19
2019-06-25T17:08:26.708Z,18.41
2019-06-25T17:10:59.953Z,18.33
2019-06-25T17:13:33.920Z,18.04
2019-06-25T17:16:22.126Z,18.49
2019-06-25T17:18:38.882Z,18.70
2019-06-25T17:21:11.985Z,19.19
2019-06-25T17:23:58.339Z,19.19
2019-06-25T17:26:17.969Z,19.71
2019-06-25T17:28:49.999Z,20.45
2019-06-25T17:31:20.888Z,20.26
2019-06-25T17:33:53.910Z,19.64
2019-06-25T17:36:26.944Z,20.07
2019-06-25T17:38:59.907Z,20.61
2019-06-25T17:41:33.039Z,21.09
2019-06-25T17:44:05.894Z,21.40
2019-06-25T17:46:38.323Z,21.75
2019-06-25T17:49:08.993Z,22.04
2019-06-25T17:51:39.968Z,22.33
2019-06-25T17:54:11.337Z,22.77
2019-06-25T17:56:42.062Z,23.29
2019-06-25T17:59:15.037Z,24.56
2019-06-25T18:01:46.131Z,25.00
2019-06-25T18:04:18.045Z,26.18
2019-06-25T18:06:50.072Z,27.01
2019-06-25T18:09:21.076Z,28.40
2019-06-25T18:11:53.127Z,30.04
2019-06-25T18:14:24.315Z,32.25
2019-06-25T18:16:57.161Z,33.81
2019-06-25T18:19:29.278Z,35.22
2019-06-25T18:22:00.211Z,36.49
2019-06-25T18:24:32.115Z,38.13
2019-06-25T18:27:04.324Z,39.19
2019-06-25T18:29:35.459Z,40.55
2019-06-25T18:32:08.340Z,41.59
2019-06-25T18:34:38.348Z,42.50
2019-06-25T18:37:26.852Z,43.68
2019-06-25T18:40:23.884Z,44.44
2019-06-25T18:42:50.240Z,45.49
2019-06-25T18:45:21.212Z,46.08
2019-06-25T18:47:56.327Z,47.13
2019-06-25T18:50:27.339Z,47.78
2019-06-25T18:53:15.732Z,48.54
2019-06-25T18:55:47.450Z,49.39
2019-06-25T18:58:18.416Z,50.00
2019-06-25T19:00:51.366Z,50.96
2019-06-25T19:03:23.394Z,51.36
2019-06-25T19:05:54.334Z,52.08
2019-06-25T19:08:26.513Z,52.58
2019-06-25T19:10:57.542Z,53.29
2019-06-25T19:13:30.499Z,53.79
2019-06-25T19:16:01.338Z,54.58
2019-06-25T19:18:32.511Z,55.15
2019-06-25T19:21:03.535Z,55.54
2019-06-25T19:23:51.838Z,56.47
2019-06-25T19:26:40.873Z,56.89
2019-06-25T19:29:11.513Z,60.13
2019-06-25T19:31:42.638Z,58.82
2019-06-25T19:34:15.690Z,59.41
2019-06-25T19:36:47.617Z,59.85
2019-06-25T19:39:36.285Z,60.18
2019-06-25T19:42:24.877Z,60.49
2019-06-25T19:44:58.250Z,60.58
2019-06-25T19:47:31.619Z,61.00
2019-06-25T19:50:16.024Z,61.52
2019-06-25T19:52:36.689Z,61.58
2019-06-25T19:55:07.808Z,61.88
2019-06-25T19:57:38.671Z,62.09
2019-06-25T20:00:14.182Z,62.37
2019-06-25T20:02:46.699Z,62.88
2019-06-25T20:05:19.650Z,62.97
2019-06-25T20:07:52.590Z,62.92
2019-06-25T20:10:23.834Z,62.95
2019-06-25T20:12:56.745Z,63.53
2019-06-25T20:15:28.823Z,63.65
2019-06-25T20:17:59.823Z,63.72
2019-06-25T20:20:32.898Z,64.13
2019-06-25T20:23:03.467Z,64.84
2019-06-25T20:25:36.816Z,65.09
2019-06-25T20:28:08.936Z,65.43
2019-06-25T20:30:40.966Z,65.43
2019-06-25T20:33:11.956Z,66.01
2019-06-25T20:35:44.885Z,66.37
2019-06-25T20:38:17.951Z,66.42
2019-06-25T20:40:48.343Z,66.74
2019-06-25T20:43:19.021Z,66.95
2019-06-25T20:45:50.964Z,67.01
2019-06-25T20:48:22.879Z,67.07
2019-06-25T20:50:53.978Z,67.64
2019-06-25T20:53:26.982Z,67.90
2019-06-25T20:55:59.958Z,68.00
2019-06-25T20:58:33.002Z,68.23
2019-06-25T21:01:04.295Z,67.84
2019-06-25T21:03:37.085Z,68.55
2019-06-25T21:06:08.301Z,68.78
2019-06-25T21:08:39.101Z,68.86
2019-06-25T21:11:25.554Z,69.41
2019-06-25T21:13:46.974Z,69.87
2019-06-25T21:16:20.303Z,70.08
2019-06-25T21:18:51.092Z,70.55
2019-06-25T21:21:24.131Z,71.08
2019-06-25T21:23:57.114Z,71.34
2019-06-25T21:26:29.106Z,71.69
2019-06-25T21:29:00.183Z,71.96
2019-06-25T21:31:31.159Z,72.68
2019-06-25T21:34:03.098Z,73.09
2019-06-25T21:36:34.295Z,73.51
2019-06-25T21:39:07.908Z,73.90
2019-06-25T21:41:39.219Z,74.38
2019-06-25T21:44:14.172Z,74.80
2019-06-25T21:46:45.214Z,75.39
2019-06-25T21:49:18.297Z,75.91
2019-06-25T21:51:50.319Z,76.36
2019-06-25T21:54:21.232Z,76.74
2019-06-25T21:56:54.408Z,76.84
2019-06-25T21:59:24.862Z,76.95
2019-06-25T22:01:58.905Z,77.59
2019-06-25T22:04:30.255Z,77.67
2019-06-25T22:07:01.334Z,77.68
2019-06-25T22:09:32.370Z,77.93
2019-06-25T22:12:17.201Z,77.70
2019-06-25T22:14:38.386Z,77.65
2019-06-25T22:17:09.316Z,77.66
2019-06-25T22:19:40.401Z,78.04
2019-06-25T22:22:19.640Z,78.20
2019-06-25T22:24:45.771Z,78.36
2019-06-25T22:27:16.477Z,78.96
2019-06-25T22:29:47.860Z,79.07
2019-06-25T22:32:18.364Z,79.16
2019-06-25T22:34:50.417Z,79.29
2019-06-25T22:37:22.377Z,79.31
2019-06-25T22:39:54.566Z,78.95
2019-06-25T22:42:37.386Z,79.32
2019-06-25T22:45:03.648Z,79.65
2019-06-25T22:47:34.454Z,80.06
2019-06-25T22:50:06.904Z,80.15
2019-06-25T22:52:39.498Z,80.50
2019-06-25T22:55:12.774Z,79.88
2019-06-25T22:57:45.576Z,80.23
2019-06-25T23:00:19.283Z,80.79
2019-06-25T23:02:51.667Z,81.38
2019-06-25T23:05:23.504Z,81.44
2019-06-25T23:07:54.587Z,82.01
2019-06-25T23:10:26.638Z,82.26
2019-06-25T23:12:57.736Z,82.47
2019-06-25T23:15:29.751Z,82.85
2019-06-25T23:18:00.720Z,82.95
2019-06-25T23:20:34.366Z,83.56
2019-06-25T23:23:05.628Z,83.97
2019-06-25T23:25:36.674Z,83.92
2019-06-25T23:28:07.680Z,84.15
2019-06-25T23:30:39.691Z,84.30
2019-06-25T23:33:12.812Z,84.19
2019-06-25T23:35:45.752Z,84.53
2019-06-25T23:38:18.739Z,84.74
2019-06-25T23:40:51.734Z,84.66
2019-06-25T23:43:24.893Z,84.58
2019-06-25T23:45:57.944Z,84.53
2019-06-25T23:48:28.349Z,84.91
2019-06-25T23:51:00.816Z,85.28
2019-06-25T23:53:32.057Z,85.19
2019-06-25T23:56:03.943Z,85.19
2019-06-25T23:58:36.920Z,85.64
